sensor_id;sensor_type;location;lat;lon;timestamp;P1;durP1;ratioP1;P2;durP2;ratioP2
24631;SDS011;59977;48.782;9.190;2022-10-16T00:00:37;7.28;;;1.70;;
24631;SDS011;59977;48.782;9.190;2022-10-16T00:03:04;9.93;;;2.10;;
24631;SDS011;59977;48.782;9.190;2022-10-16T00:05:30;4.00;;;2.10;;
24631;SDS011;59977;48.782;9.190;2022-10-16T00:07:56;5.35;;;2.13;;
24631;SDS011;59977;48.782;9.190;2022-10-16T00:10:22;3.00;;;1.85;;
24631;SDS011;59977;48.782;9.190;2022-10-16T00:12:48;7.18;;;2.33;;
24631;SDS011;59977;48.782;9.190;2022-10-16T00:15:13;5.53;;;2.20;;
24631;SDS011;59977;48.782;9.190;2022-10-16T00:17:39;6.75;;;2.25;;
24631;SDS011;59977;48.782;9.190;2022-10-16T00:20:05;4.85;;;2.13;;
24631;SDS011;59977;48.782;9.190;2022-10-16T00:22:31;7.80;;;2.20;;
24631;SDS011;59977;48.782;9.190;2022-10-16T00:24:57;7.55;;;2.25;;
24631;SDS011;59977;48.782;9.190;2022-10-16T00:27:23;7.45;;;2.70;;
24631;SDS011;59977;48.782;9.190;2022-10-16T00:29:49;7.78;;;3.10;;
24631;SDS011;59977;48.782;9.190;2022-10-16T00:32:16;5.70;;;2.50;;
24631;SDS011;59977;48.782;9.190;2022-10-16T00:34:42;6.57;;;2.20;;
24631;SDS011;59977;48.782;9.190;2022-10-16T00:37:08;9.05;;;2.53;;
24631;SDS011;59977;48.782;9.190;2022-10-16T00:39:33;5.78;;;2.30;;
24631;SDS011;59977;48.782;9.190;2022-10-16T00:41:59;7.70;;;2.30;;
24631;SDS011;59977;48.782;9.190;2022-10-16T00:47:12;16.20;;;2.40;;
24631;SDS011;59977;48.782;9.190;2022-10-16T00:49:55;8.75;;;2.40;;
24631;SDS011;59977;48.782;9.190;2022-10-16T00:52:27;7.78;;;2.03;;
24631;SDS011;59977;48.782;9.190;2022-10-16T00:54:53;3.13;;;2.13;;
24631;SDS011;59977;48.782;9.190;2022-10-16T00:57:20;7.40;;;2.13;;
24631;SDS011;59977;48.782;9.190;2022-10-16T00:59:46;3.38;;;1.77;;
24631;SDS011;59977;48.782;9.190;2022-10-16T01:02:13;6.20;;;2.00;;
24631;SDS011;59977;48.782;9.190;2022-10-16T01:04:45;7.22;;;1.90;;
24631;SDS011;59977;48.782;9.190;2022-10-16T01:12:53;7.03;;;1.90;;
24631;SDS011;59977;48.782;9.190;2022-10-16T01:15:25;7.50;;;2.20;;
24631;SDS011;59977;48.782;9.190;2022-10-16T01:18:14;5.25;;;2.00;;
24631;SDS011;59977;48.782;9.190;2022-10-16T01:26:22;2.63;;;1.70;;
24631;SDS011;59977;48.782;9.190;2022-10-16T01:28:57;9.07;;;2.40;;
24631;SDS011;59977;48.782;9.190;2022-10-16T01:31:39;6.15;;;1.80;;
24631;SDS011;59977;48.782;9.190;2022-10-16T01:34:10;7.72;;;2.15;;
24631;SDS011;59977;48.782;9.190;2022-10-16T01:36:45;4.55;;;1.88;;
24631;SDS011;59977;48.782;9.190;2022-10-16T01:39:16;6.13;;;2.40;;
24631;SDS011;59977;48.782;9.190;2022-10-16T01:41:59;4.70;;;2.00;;
24631;SDS011;59977;48.782;9.190;2022-10-16T01:44:31;5.60;;;1.83;;
24631;SDS011;59977;48.782;9.190;2022-10-16T01:46:58;11.50;;;2.28;;
24631;SDS011;59977;48.782;9.190;2022-10-16T01:49:25;7.95;;;1.90;;
24631;SDS011;59977;48.782;9.190;2022-10-16T01:51:55;5.10;;;1.80;;
24631;SDS011;59977;48.782;9.190;2022-10-16T01:54:25;3.35;;;1.67;;
24631;SDS011;59977;48.782;9.190;2022-10-16T01:56:54;4.18;;;1.70;;
24631;SDS011;59977;48.782;9.190;2022-10-16T01:59:21;5.78;;;1.40;;
24631;SDS011;59977;48.782;9.190;2022-10-16T02:01:52;3.80;;;1.42;;
24631;SDS011;59977;48.782;9.190;2022-10-16T02:04:23;3.73;;;1.87;;
24631;SDS011;59977;48.782;9.190;2022-10-16T02:06:54;5.32;;;1.77;;
24631;SDS011;59977;48.782;9.190;2022-10-16T02:09:20;7.35;;;2.00;;
24631;SDS011;59977;48.782;9.190;2022-10-16T02:11:46;5.68;;;1.90;;
24631;SDS011;59977;48.782;9.190;2022-10-16T02:14:14;4.97;;;1.58;;
24631;SDS011;59977;48.782;9.190;2022-10-16T02:16:41;5.13;;;1.67;;
24631;SDS011;59977;48.782;9.190;2022-10-16T02:19:09;4.15;;;1.60;;
24631;SDS011;59977;48.782;9.190;2022-10-16T02:26:58;5.05;;;2.28;;
24631;SDS011;59977;48.782;9.190;2022-10-16T02:29:38;4.35;;;1.50;;
24631;SDS011;59977;48.782;9.190;2022-10-16T02:32:09;2.10;;;1.60;;
24631;SDS011;59977;48.782;9.190;2022-10-16T02:34:37;6.30;;;1.90;;
24631;SDS011;59977;48.782;9.190;2022-10-16T02:37:05;5.97;;;1.83;;
24631;SDS011;59977;48.782;9.190;2022-10-16T02:39:32;6.40;;;2.10;;
24631;SDS011;59977;48.782;9.190;2022-10-16T02:41:59;8.95;;;1.98;;
24631;SDS011;59977;48.782;9.190;2022-10-16T02:44:24;6.35;;;2.17;;
24631;SDS011;59977;48.782;9.190;2022-10-16T02:46:50;5.75;;;2.00;;
24631;SDS011;59977;48.782;9.190;2022-10-16T02:49:16;7.05;;;1.85;;
24631;SDS011;59977;48.782;9.190;2022-10-16T02:51:42;6.40;;;1.55;;
24631;SDS011;59977;48.782;9.190;2022-10-16T02:54:08;6.32;;;2.00;;
24631;SDS011;59977;48.782;9.190;2022-10-16T02:56:33;7.90;;;2.00;;
24631;SDS011;59977;48.782;9.190;2022-10-16T02:58:59;4.43;;;1.98;;
24631;SDS011;59977;48.782;9.190;2022-10-16T03:01:25;3.08;;;1.80;;
24631;SDS011;59977;48.782;9.190;2022-10-16T03:03:50;5.97;;;1.77;;
24631;SDS011;59977;48.782;9.190;2022-10-16T03:06:16;4.40;;;1.70;;
24631;SDS011;59977;48.782;9.190;2022-10-16T03:08:41;4.28;;;1.88;;
24631;SDS011;59977;48.782;9.190;2022-10-16T03:11:07;8.98;;;2.03;;
24631;SDS011;59977;48.782;9.190;2022-10-16T03:13:32;7.20;;;1.90;;
24631;SDS011;59977;48.782;9.190;2022-10-16T03:15:58;7.03;;;1.90;;
24631;SDS011;59977;48.782;9.190;2022-10-16T03:18:24;8.25;;;1.67;;
24631;SDS011;59977;48.782;9.190;2022-10-16T03:20:49;3.80;;;1.65;;
24631;SDS011;59977;48.782;9.190;2022-10-16T03:23:15;2.78;;;1.67;;
24631;SDS011;59977;48.782;9.190;2022-10-16T03:25:40;4.47;;;1.70;;
24631;SDS011;59977;48.782;9.190;2022-10-16T03:28:06;12.90;;;1.80;;
24631;SDS011;59977;48.782;9.190;2022-10-16T03:30:31;7.55;;;1.77;;
24631;SDS011;59977;48.782;9.190;2022-10-16T03:32:57;7.22;;;1.80;;
24631;SDS011;59977;48.782;9.190;2022-10-16T03:35:23;7.38;;;1.75;;
24631;SDS011;59977;48.782;9.190;2022-10-16T03:37:49;5.32;;;1.55;;
24631;SDS011;59977;48.782;9.190;2022-10-16T03:40:15;9.57;;;1.80;;
24631;SDS011;59977;48.782;9.190;2022-10-16T03:42:44;5.55;;;1.92;;
24631;SDS011;59977;48.782;9.190;2022-10-16T20:31:32;6.25;;;3.45;;
24631;SDS011;59977;48.782;9.190;2022-10-16T20:34:01;15.75;;;3.85;;
24631;SDS011;59977;48.782;9.190;2022-10-16T20:36:29;10.02;;;3.58;;
24631;SDS011;59977;48.782;9.190;2022-10-16T20:38:55;16.02;;;3.53;;
24631;SDS011;59977;48.782;9.190;2022-10-16T20:41:22;13.20;;;3.92;;
24631;SDS011;59977;48.782;9.190;2022-10-16T20:43:48;13.23;;;4.10;;
24631;SDS011;59977;48.782;9.190;2022-10-16T20:46:16;21.30;;;4.10;;
24631;SDS011;59977;48.782;9.190;2022-10-16T20:48:44;7.25;;;3.80;;
24631;SDS011;59977;48.782;9.190;2022-10-16T20:51:21;11.35;;;4.32;;
24631;SDS011;59977;48.782;9.190;2022-10-16T20:53:59;8.13;;;3.85;;
24631;SDS011;59977;48.782;9.190;2022-10-16T20:56:28;13.48;;;4.05;;
24631;SDS011;59977;48.782;9.190;2022-10-16T20:58:56;10.13;;;3.88;;
24631;SDS011;59977;48.782;9.190;2022-10-16T21:01:22;4.95;;;3.58;;
24631;SDS011;59977;48.782;9.190;2022-10-16T21:03:51;22.23;;;4.65;;
24631;SDS011;59977;48.782;9.190;2022-10-16T21:06:19;17.85;;;4.47;;
24631;SDS011;59977;48.782;9.190;2022-10-16T21:08:45;16.45;;;4.88;;
24631;SDS011;59977;48.782;9.190;2022-10-16T21:13:46;10.90;;;4.43;;
24631;SDS011;59977;48.782;9.190;2022-10-16T21:16:12;12.20;;;4.60;;
24631;SDS011;59977;48.782;9.190;2022-10-16T21:18:39;10.00;;;4.22;;
24631;SDS011;59977;48.782;9.190;2022-10-16T21:21:07;10.65;;;3.75;;
24631;SDS011;59977;48.782;9.190;2022-10-16T21:23:33;7.38;;;3.17;;
24631;SDS011;59977;48.782;9.190;2022-10-16T21:25:59;8.77;;;3.40;;
24631;SDS011;59977;48.782;9.190;2022-10-16T21:28:26;10.82;;;3.30;;
24631;SDS011;59977;48.782;9.190;2022-10-16T21:30:53;8.90;;;3.17;;
24631;SDS011;59977;48.782;9.190;2022-10-16T21:33:19;8.77;;;2.90;;
24631;SDS011;59977;48.782;9.190;2022-10-16T21:35:45;7.45;;;2.90;;
24631;SDS011;59977;48.782;9.190;2022-10-16T21:38:10;16.05;;;3.22;;
24631;SDS011;59977;48.782;9.190;2022-10-16T21:40:36;10.73;;;3.58;;
24631;SDS011;59977;48.782;9.190;2022-10-16T21:43:02;6.90;;;3.50;;
24631;SDS011;59977;48.782;9.190;2022-10-16T21:45:31;9.20;;;3.80;;
24631;SDS011;59977;48.782;9.190;2022-10-16T21:47:58;22.27;;;3.83;;
24631;SDS011;59977;48.782;9.190;2022-10-16T21:50:24;8.13;;;3.05;;
24631;SDS011;59977;48.782;9.190;2022-10-16T21:52:50;10.10;;;3.22;;
24631;SDS011;59977;48.782;9.190;2022-10-16T21:55:16;14.60;;;2.75;;
24631;SDS011;59977;48.782;9.190;2022-10-16T21:57:41;9.27;;;2.88;;
24631;SDS011;59977;48.782;9.190;2022-10-16T22:00:10;13.63;;;3.20;;
24631;SDS011;59977;48.782;9.190;2022-10-16T22:02:36;6.10;;;2.85;;
24631;SDS011;59977;48.782;9.190;2022-10-16T22:05:02;8.40;;;3.00;;
24631;SDS011;59977;48.782;9.190;2022-10-16T22:07:28;8.10;;;3.72;;
24631;SDS011;59977;48.782;9.190;2022-10-16T22:09:54;13.52;;;3.40;;
24631;SDS011;59977;48.782;9.190;2022-10-16T22:12:20;14.45;;;3.38;;
24631;SDS011;59977;48.782;9.190;2022-10-16T22:14:46;11.93;;;3.05;;
24631;SDS011;59977;48.782;9.190;2022-10-16T22:17:11;15.27;;;3.42;;
24631;SDS011;59977;48.782;9.190;2022-10-16T22:19:38;7.88;;;2.92;;
24631;SDS011;59977;48.782;9.190;2022-10-16T22:22:03;5.93;;;3.13;;
24631;SDS011;59977;48.782;9.190;2022-10-16T22:24:29;9.57;;;3.10;;
24631;SDS011;59977;48.782;9.190;2022-10-16T22:26:55;10.57;;;3.67;;
24631;SDS011;59977;48.782;9.190;2022-10-16T22:29:21;9.23;;;2.70;;
24631;SDS011;59977;48.782;9.190;2022-10-16T22:31:51;9.95;;;2.78;;
24631;SDS011;59977;48.782;9.190;2022-10-16T22:34:17;7.65;;;2.90;;
24631;SDS011;59977;48.782;9.190;2022-10-16T22:36:43;10.52;;;2.80;;
24631;SDS011;59977;48.782;9.190;2022-10-16T22:39:09;16.10;;;3.80;;
24631;SDS011;59977;48.782;9.190;2022-10-16T22:41:35;5.88;;;2.72;;
24631;SDS011;59977;48.782;9.190;2022-10-16T22:44:00;11.73;;;3.00;;
24631;SDS011;59977;48.782;9.190;2022-10-16T22:46:27;8.65;;;2.90;;
24631;SDS011;59977;48.782;9.190;2022-10-16T22:48:54;9.70;;;4.40;;
24631;SDS011;59977;48.782;9.190;2022-10-16T22:51:20;8.93;;;3.80;;
24631;SDS011;59977;48.782;9.190;2022-10-16T22:53:47;13.38;;;3.50;;
24631;SDS011;59977;48.782;9.190;2022-10-16T22:56:14;15.88;;;3.53;;
24631;SDS011;59977;48.782;9.190;2022-10-16T22:58:40;13.50;;;5.07;;
24631;SDS011;59977;48.782;9.190;2022-10-16T23:01:10;8.88;;;3.83;;
24631;SDS011;59977;48.782;9.190;2022-10-16T23:03:39;14.60;;;3.70;;
24631;SDS011;59977;48.782;9.190;2022-10-16T23:06:05;13.93;;;3.85;;
24631;SDS011;59977;48.782;9.190;2022-10-16T23:08:31;13.45;;;4.57;;
24631;SDS011;59977;48.782;9.190;2022-10-16T23:10:56;8.80;;;3.55;;
24631;SDS011;59977;48.782;9.190;2022-10-16T23:13:25;14.57;;;3.85;;
24631;SDS011;59977;48.782;9.190;2022-10-16T23:15:50;11.32;;;3.65;;
24631;SDS011;59977;48.782;9.190;2022-10-16T23:18:16;11.57;;;3.53;;
24631;SDS011;59977;48.782;9.190;2022-10-16T23:20:42;11.82;;;3.50;;
24631;SDS011;59977;48.782;9.190;2022-10-16T23:23:08;17.00;;;3.50;;
24631;SDS011;59977;48.782;9.190;2022-10-16T23:25:33;16.25;;;3.63;;
24631;SDS011;59977;48.782;9.190;2022-10-16T23:27:59;16.02;;;3.70;;
